createdAt,value
2023-04-30T00:01:13.954Z,69.90
2023-04-30T00:03:40.994Z,69.90
2023-04-30T00:06:08.031Z,69.90
2023-04-30T00:08:35.290Z,70.00
2023-04-30T00:11:02.355Z,70.00
2023-04-30T00:13:29.307Z,69.90
2023-04-30T00:15:56.421Z,69.90
2023-04-30T00:18:23.271Z,70.10
2023-04-30T00:20:51.990Z,70.10
2023-04-30T00:23:18.954Z,70.00
2023-04-30T00:25:45.812Z,70.10
2023-04-30T00:28:12.637Z,70.10
2023-04-30T00:30:39.539Z,70.00
2023-04-30T00:33:06.628Z,70.10
2023-04-30T00:35:33.724Z,70.10
2023-04-30T00:38:00.773Z,70.00
2023-04-30T00:40:27.708Z,70.00
2023-04-30T00:42:55.949Z,70.20
2023-04-30T00:45:23.571Z,70.40
2023-04-30T00:47:50.754Z,70.20
2023-04-30T00:50:18.137Z,70.10
2023-04-30T00:52:45.749Z,70.00
2023-04-30T00:55:13.443Z,70.00
2023-04-30T00:57:40.999Z,70.20
2023-04-30T01:00:11.582Z,70.20
2023-04-30T01:02:38.812Z,70.50
2023-04-30T01:05:06.886Z,70.20
2023-04-30T01:07:36.034Z,70.30
2023-04-30T01:10:03.448Z,70.20
2023-04-30T01:12:41.690Z,69.90
2023-04-30T01:15:29.980Z,69.90
2023-04-30T01:18:09.272Z,70.00
2023-04-30T01:20:44.476Z,69.70
2023-04-30T01:23:38.536Z,69.50
2023-04-30T01:26:24.301Z,69.60
2023-04-30T01:28:53.502Z,69.50
2023-04-30T01:31:20.618Z,69.60
2023-04-30T01:33:47.752Z,69.50
2023-04-30T01:36:39.578Z,69.40
2023-04-30T01:39:28.473Z,69.10
2023-04-30T01:42:11.099Z,69.10
2023-04-30T01:44:53.372Z,69.30
2023-04-30T01:47:41.420Z,69.30
2023-04-30T01:50:54.747Z,68.90
2023-04-30T01:53:27.824Z,69.10
2023-04-30T01:56:08.542Z,69.50
2023-04-30T01:58:36.182Z,69.70
2023-04-30T02:01:03.728Z,69.70
2023-04-30T02:03:30.890Z,69.50
2023-04-30T02:05:59.135Z,69.40
2023-04-30T02:08:27.272Z,69.10
2023-04-30T02:10:54.162Z,68.90
2023-04-30T02:13:21.187Z,68.90
2023-04-30T02:15:48.110Z,69.30
2023-04-30T02:21:18.452Z,69.80
2023-04-30T02:23:45.915Z,69.90
2023-04-30T02:26:12.883Z,69.80
2023-04-30T02:28:39.968Z,69.80
2023-04-30T02:31:07.133Z,70.20
2023-04-30T02:33:34.447Z,70.20
2023-04-30T02:36:02.448Z,70.00
2023-04-30T02:38:29.307Z,69.80
2023-04-30T02:40:56.220Z,69.60
2023-04-30T02:43:23.195Z,69.80
2023-04-30T02:45:50.243Z,69.90
2023-04-30T02:48:17.204Z,70.20
2023-04-30T02:50:45.532Z,70.00
2023-04-30T02:53:12.482Z,69.90
2023-04-30T02:55:39.401Z,70.00
2023-04-30T02:58:06.338Z,69.90
2023-04-30T03:00:33.292Z,69.90
2023-04-30T03:03:00.368Z,69.90
2023-04-30T03:05:28.354Z,69.90
2023-04-30T03:07:55.781Z,70.00
2023-04-30T03:10:22.717Z,69.90
2023-04-30T03:12:49.646Z,69.80
2023-04-30T03:15:18.187Z,69.60
2023-04-30T03:17:46.294Z,69.50
2023-04-30T03:20:14.336Z,69.50
2023-04-30T03:22:41.882Z,69.50
2023-04-30T03:25:10.777Z,69.60
2023-04-30T03:27:37.803Z,69.40
2023-04-30T03:30:05.514Z,69.70
2023-04-30T03:32:32.518Z,69.70
2023-04-30T03:35:00.045Z,69.90
2023-04-30T03:37:26.953Z,69.90
2023-04-30T03:39:54.041Z,70.00
2023-04-30T03:42:21.214Z,70.20
2023-04-30T03:44:48.181Z,70.20
2023-04-30T03:47:15.216Z,70.40
2023-04-30T03:49:42.427Z,70.40
2023-04-30T03:52:09.915Z,70.60
2023-04-30T03:54:36.943Z,70.80
2023-04-30T03:57:04.701Z,71.00
2023-04-30T03:59:32.735Z,71.10
2023-04-30T04:02:01.807Z,71.20
2023-04-30T04:04:30.317Z,71.30
2023-04-30T04:06:57.603Z,71.60
2023-04-30T04:09:24.683Z,71.60
2023-04-30T04:11:51.860Z,71.70
2023-04-30T04:14:18.845Z,71.70
2023-04-30T04:16:47.151Z,71.90
2023-04-30T04:19:14.325Z,72.20
2023-04-30T04:21:41.443Z,72.40
2023-04-30T04:24:14.469Z,72.40
2023-04-30T04:26:41.747Z,72.10
2023-04-30T04:29:10.439Z,72.10
2023-04-30T04:31:39.045Z,72.20
2023-04-30T04:34:06.296Z,72.20
2023-04-30T04:36:34.367Z,72.60
2023-04-30T04:39:02.382Z,72.90
2023-04-30T04:41:34.007Z,73.20
2023-04-30T04:44:03.419Z,73.20
2023-04-30T04:46:32.289Z,73.40
2023-04-30T04:48:59.633Z,73.60
2023-04-30T04:51:27.070Z,73.50
2023-04-30T04:53:55.100Z,73.70
2023-04-30T04:56:22.336Z,73.50
2023-04-30T04:58:49.558Z,73.50
2023-04-30T05:01:21.469Z,73.80
2023-04-30T05:03:49.681Z,74.00
2023-04-30T05:06:20.046Z,74.20
2023-04-30T05:08:49.598Z,74.40
2023-04-30T05:11:17.433Z,74.70
2023-04-30T05:13:44.587Z,75.00
2023-04-30T05:16:11.837Z,74.90
2023-04-30T05:18:38.940Z,75.40
2023-04-30T05:21:06.479Z,75.30
2023-04-30T05:23:33.450Z,75.30
2023-04-30T05:26:00.790Z,75.30
2023-04-30T05:28:37.092Z,75.10
2023-04-30T05:31:04.216Z,74.90
2023-04-30T05:33:31.104Z,75.40
2023-04-30T05:35:57.998Z,75.20
2023-04-30T05:38:25.629Z,75.40
2023-04-30T05:40:52.862Z,75.40
2023-04-30T05:43:19.869Z,75.10
2023-04-30T05:45:47.266Z,75.40
2023-04-30T05:48:14.508Z,75.30
2023-04-30T05:50:41.578Z,75.20
2023-04-30T05:53:08.944Z,75.10
2023-04-30T05:55:36.517Z,75.00
2023-04-30T05:58:03.601Z,75.20
2023-04-30T06:00:31.218Z,75.30
2023-04-30T06:02:58.177Z,75.40
2023-04-30T06:05:25.609Z,75.50
2023-04-30T06:07:52.720Z,75.60
2023-04-30T06:10:19.694Z,75.40
2023-04-30T06:12:46.732Z,75.20
2023-04-30T06:15:13.647Z,74.90
2023-04-30T06:17:40.779Z,75.00
2023-04-30T06:20:08.363Z,75.00
2023-04-30T06:22:35.324Z,75.20
2023-04-30T06:25:03.512Z,75.20
2023-04-30T06:27:32.485Z,75.40
2023-04-30T06:30:01.134Z,75.60
2023-04-30T06:32:28.281Z,75.80
2023-04-30T06:34:55.819Z,75.70
2023-04-30T06:37:22.875Z,75.40
2023-04-30T06:39:50.553Z,75.60
2023-04-30T06:42:18.530Z,75.50
2023-04-30T06:44:47.248Z,75.40
2023-04-30T06:47:14.288Z,75.50
2023-04-30T06:49:41.216Z,75.40
2023-04-30T06:52:08.616Z,75.40
2023-04-30T06:54:35.555Z,75.50
2023-04-30T06:57:03.246Z,75.50
2023-04-30T06:59:30.169Z,75.50
2023-04-30T07:01:57.293Z,75.50
2023-04-30T07:04:24.683Z,75.40
2023-04-30T07:06:51.714Z,75.50
2023-04-30T07:09:18.819Z,75.30
2023-04-30T07:11:45.769Z,74.90
2023-04-30T07:14:12.614Z,74.70
2023-04-30T07:16:39.502Z,74.30
2023-04-30T07:19:06.520Z,74.10
2023-04-30T07:21:33.521Z,73.40
2023-04-30T07:24:00.429Z,72.90
2023-04-30T07:26:27.450Z,72.20
2023-04-30T07:28:54.471Z,72.00
2023-04-30T07:31:21.500Z,72.00
2023-04-30T07:33:50.619Z,72.10
2023-04-30T07:36:17.503Z,71.70
2023-04-30T07:38:44.499Z,71.70
2023-04-30T07:41:11.340Z,71.80
2023-04-30T07:43:38.274Z,71.80
2023-04-30T07:46:05.436Z,71.60
2023-04-30T07:48:32.578Z,71.50
2023-04-30T07:50:59.448Z,71.30
2023-04-30T07:53:26.448Z,71.00
2023-04-30T07:55:53.264Z,70.60
2023-04-30T07:58:20.230Z,70.60
2023-04-30T08:00:47.882Z,70.80
2023-04-30T08:03:14.955Z,70.50
2023-04-30T08:05:41.985Z,70.10
2023-04-30T08:08:08.903Z,69.70
2023-04-30T08:10:37.293Z,69.70
2023-04-30T08:13:05.661Z,68.90
2023-04-30T08:15:34.259Z,68.60
2023-04-30T08:18:05.355Z,68.60
2023-04-30T08:20:33.177Z,68.30
2023-04-30T08:23:00.169Z,68.40
2023-04-30T08:25:27.592Z,68.30
2023-04-30T08:27:54.541Z,68.20
2023-04-30T08:30:21.512Z,68.10
2023-04-30T08:32:49.552Z,68.00
2023-04-30T08:35:19.808Z,67.50
2023-04-30T08:37:46.785Z,67.10
2023-04-30T08:40:14.141Z,66.70
2023-04-30T08:42:46.857Z,65.60
2023-04-30T08:45:14.597Z,65.40
2023-04-30T08:47:42.012Z,65.50
2023-04-30T08:50:09.608Z,65.60
2023-04-30T08:52:38.860Z,65.30
2023-04-30T08:55:08.808Z,65.20
2023-04-30T08:57:38.488Z,65.30
2023-04-30T09:00:07.018Z,64.80
2023-04-30T09:02:34.929Z,64.50
2023-04-30T09:05:02.316Z,64.20
2023-04-30T09:07:33.889Z,64.20
2023-04-30T09:10:00.907Z,64.40
2023-04-30T09:12:27.832Z,64.10
2023-04-30T09:15:03.829Z,63.80
2023-04-30T09:17:32.183Z,63.90
2023-04-30T09:20:09.013Z,63.30
2023-04-30T09:22:37.980Z,63.30
2023-04-30T09:25:05.754Z,63.10
2023-04-30T09:27:32.962Z,63.10
2023-04-30T09:30:00.109Z,63.90
2023-04-30T09:32:27.483Z,63.20
2023-04-30T09:34:56.085Z,63.10
2023-04-30T09:37:35.074Z,62.30
2023-04-30T09:40:02.455Z,62.70
2023-04-30T09:42:29.412Z,62.30
2023-04-30T09:44:56.396Z,61.90
2023-04-30T09:47:23.306Z,61.50
2023-04-30T09:49:54.296Z,61.90
2023-04-30T09:52:21.782Z,61.90
2023-04-30T09:54:49.649Z,61.70
2023-04-30T09:57:17.074Z,61.80
2023-04-30T09:59:46.271Z,61.80
2023-04-30T10:02:17.368Z,61.50
2023-04-30T10:04:45.536Z,61.80
2023-04-30T10:07:24.472Z,61.00
2023-04-30T10:09:59.429Z,60.80
2023-04-30T10:12:40.638Z,60.40
2023-04-30T10:15:14.358Z,60.20
2023-04-30T10:17:42.553Z,60.60
2023-04-30T10:20:11.177Z,60.60
2023-04-30T10:22:38.847Z,60.00
2023-04-30T10:25:07.163Z,59.50
2023-04-30T10:27:36.348Z,59.30
2023-04-30T10:30:05.315Z,59.00
2023-04-30T10:33:07.350Z,58.90
2023-04-30T10:36:09.599Z,58.60
2023-04-30T10:38:38.488Z,58.40
2023-04-30T10:41:07.792Z,58.40
2023-04-30T10:43:37.085Z,58.50
2023-04-30T10:46:04.810Z,58.80
2023-04-30T10:48:35.714Z,58.30
2023-04-30T10:51:02.761Z,58.20
2023-04-30T10:53:33.944Z,58.10
2023-04-30T10:56:08.781Z,58.10
2023-04-30T10:58:40.222Z,58.10
2023-04-30T11:01:12.323Z,58.20
2023-04-30T11:03:43.093Z,58.00
2023-04-30T11:06:15.225Z,57.40
2023-04-30T11:08:46.560Z,57.60
2023-04-30T11:11:21.352Z,57.50
2023-04-30T11:14:01.215Z,57.60
2023-04-30T11:16:35.063Z,57.70
2023-04-30T11:19:13.892Z,57.30
2023-04-30T11:22:05.842Z,58.00
2023-04-30T11:24:55.174Z,57.70
2023-04-30T11:27:29.862Z,56.80
2023-04-30T11:29:58.302Z,56.10
2023-04-30T11:32:31.764Z,55.50
2023-04-30T11:34:59.059Z,55.30
2023-04-30T11:37:33.490Z,55.10
2023-04-30T11:40:04.147Z,54.70
2023-04-30T11:42:34.896Z,54.60
2023-04-30T11:45:13.146Z,54.40
2023-04-30T11:47:40.806Z,54.50
2023-04-30T11:50:13.112Z,54.70
2023-04-30T11:52:55.306Z,55.10
2023-04-30T11:55:27.980Z,55.40
2023-04-30T11:58:02.302Z,55.40
2023-04-30T12:00:30.674Z,55.50
2023-04-30T12:03:00.486Z,55.60
2023-04-30T12:05:28.156Z,55.50
2023-04-30T12:08:08.155Z,55.70
2023-04-30T12:10:36.056Z,57.50
2023-04-30T12:13:02.998Z,58.90
2023-04-30T12:15:29.987Z,59.10
2023-04-30T12:17:58.881Z,58.50
2023-04-30T12:20:28.591Z,57.00
2023-04-30T12:22:55.618Z,56.40
2023-04-30T12:25:23.578Z,56.50
2023-04-30T12:27:52.792Z,55.30
2023-04-30T12:30:21.740Z,53.90
2023-04-30T12:32:53.506Z,53.80
2023-04-30T12:35:22.740Z,53.80
2023-04-30T12:37:54.802Z,53.70
2023-04-30T12:40:27.068Z,53.50
2023-04-30T12:43:02.190Z,53.00
2023-04-30T12:45:47.646Z,54.80
2023-04-30T12:48:15.960Z,57.80
2023-04-30T12:50:47.195Z,58.00
2023-04-30T12:53:14.196Z,57.60
2023-04-30T12:55:42.111Z,57.30
2023-04-30T12:58:14.463Z,55.70
2023-04-30T13:00:46.198Z,55.60
2023-04-30T13:03:14.009Z,55.00
2023-04-30T13:05:42.173Z,53.70
2023-04-30T13:08:09.792Z,52.70
2023-04-30T13:10:36.689Z,52.00
2023-04-30T13:13:03.533Z,51.30
2023-04-30T13:15:30.498Z,50.80
2023-04-30T13:17:57.729Z,50.20
2023-04-30T13:20:27.622Z,50.10
2023-04-30T13:22:54.710Z,50.60
2023-04-30T13:25:22.361Z,50.60
2023-04-30T13:27:49.283Z,50.80
2023-04-30T13:30:16.205Z,51.60
2023-04-30T13:32:43.301Z,52.60
2023-04-30T13:35:11.402Z,52.90
2023-04-30T13:37:39.070Z,53.20
2023-04-30T13:40:09.690Z,53.60
2023-04-30T13:42:38.842Z,53.90
2023-04-30T13:45:07.166Z,53.90
2023-04-30T13:47:35.639Z,52.20
2023-04-30T13:50:03.415Z,52.00
2023-04-30T13:52:30.398Z,50.80
2023-04-30T13:54:57.569Z,51.20
2023-04-30T13:57:24.889Z,51.40
2023-04-30T13:59:52.039Z,50.90
2023-04-30T14:02:19.104Z,49.00
2023-04-30T14:04:58.022Z,48.70
2023-04-30T14:07:29.692Z,48.60
2023-04-30T14:09:56.809Z,48.80
2023-04-30T14:12:24.595Z,48.70
2023-04-30T14:14:52.024Z,48.00
2023-04-30T14:17:19.227Z,47.50
2023-04-30T14:19:46.185Z,47.40
2023-04-30T14:22:13.460Z,46.70
2023-04-30T14:24:40.582Z,46.30
2023-04-30T14:27:07.652Z,45.80
2023-04-30T14:29:34.481Z,45.80
2023-04-30T14:32:01.958Z,45.40
2023-04-30T14:34:28.871Z,44.50
2023-04-30T14:36:59.286Z,43.60
2023-04-30T14:39:27.578Z,42.90
2023-04-30T14:41:54.505Z,43.40
2023-04-30T14:44:26.534Z,43.40
2023-04-30T14:46:54.178Z,42.20
2023-04-30T14:49:21.401Z,41.30
2023-04-30T14:51:48.359Z,40.60
2023-04-30T14:54:15.495Z,41.60
2023-04-30T14:56:42.648Z,42.20
2023-04-30T14:59:10.288Z,42.90
2023-04-30T15:01:41.128Z,42.20
2023-04-30T15:04:08.188Z,41.30
2023-04-30T15:06:35.112Z,41.40
2023-04-30T15:09:02.791Z,41.90
2023-04-30T15:11:29.789Z,42.00
2023-04-30T15:13:57.077Z,41.50
2023-04-30T15:16:24.723Z,41.70
2023-04-30T15:18:52.022Z,41.50
2023-04-30T15:21:19.140Z,41.80
2023-04-30T15:23:46.105Z,42.20
2023-04-30T15:26:13.389Z,43.20
2023-04-30T15:28:40.569Z,43.60
2023-04-30T15:31:07.917Z,43.50
2023-04-30T15:33:39.774Z,43.50
2023-04-30T15:36:06.820Z,43.70
2023-04-30T15:38:35.442Z,43.50
2023-04-30T15:41:02.979Z,43.50
2023-04-30T15:43:32.504Z,43.00
2023-04-30T15:45:59.601Z,42.50
2023-04-30T15:48:27.112Z,42.20
2023-04-30T15:50:54.099Z,42.30
2023-04-30T15:53:21.638Z,43.00
2023-04-30T15:55:49.650Z,42.80
2023-04-30T15:58:16.775Z,42.90
2023-04-30T16:00:44.050Z,43.00
2023-04-30T16:03:11.861Z,43.10
2023-04-30T16:05:40.626Z,42.90
2023-04-30T16:08:10.465Z,42.80
2023-04-30T16:10:38.862Z,43.10
2023-04-30T16:13:06.742Z,42.90
2023-04-30T16:15:33.897Z,43.00
2023-04-30T16:18:01.323Z,43.10
2023-04-30T16:20:28.596Z,43.10
2023-04-30T16:22:56.535Z,43.10
2023-04-30T16:25:23.723Z,42.90
2023-04-30T16:27:51.756Z,42.80
2023-04-30T16:30:19.177Z,42.90
2023-04-30T16:32:46.199Z,42.90
2023-04-30T16:35:13.393Z,42.50
2023-04-30T16:37:40.552Z,42.30
2023-04-30T16:40:08.349Z,42.00
2023-04-30T16:42:35.643Z,42.40
2023-04-30T16:45:04.094Z,42.10
2023-04-30T16:47:31.555Z,42.40
2023-04-30T16:49:58.815Z,42.80
2023-04-30T16:52:26.100Z,43.00
2023-04-30T16:54:53.046Z,43.20
2023-04-30T16:57:21.485Z,43.80
2023-04-30T16:59:50.739Z,44.40
2023-04-30T17:02:18.594Z,44.70
2023-04-30T17:04:45.684Z,45.00
2023-04-30T17:07:13.074Z,45.10
2023-04-30T17:09:40.307Z,45.40
2023-04-30T17:12:08.152Z,45.30
2023-04-30T17:14:37.403Z,45.90
2023-04-30T17:17:04.696Z,46.10
2023-04-30T17:19:31.687Z,46.30
2023-04-30T17:21:59.122Z,46.50
2023-04-30T17:24:26.678Z,46.80
2023-04-30T17:26:54.233Z,47.20
2023-04-30T17:29:22.560Z,47.50
2023-04-30T17:31:49.829Z,47.60
2023-04-30T17:34:16.825Z,47.70
2023-04-30T17:36:44.715Z,47.70
2023-04-30T17:39:12.978Z,48.00
2023-04-30T17:41:40.454Z,47.10
2023-04-30T17:44:07.704Z,48.00
2023-04-30T17:46:35.015Z,47.70
2023-04-30T17:49:03.764Z,48.00
2023-04-30T17:51:32.538Z,48.00
2023-04-30T17:53:59.970Z,48.30
2023-04-30T17:56:30.327Z,48.60
2023-04-30T17:58:58.302Z,49.00
2023-04-30T18:01:26.054Z,49.10
2023-04-30T18:03:54.501Z,49.30
2023-04-30T18:06:22.803Z,49.70
2023-04-30T18:08:50.168Z,49.80
2023-04-30T18:11:17.801Z,50.20
2023-04-30T18:13:45.134Z,50.10
2023-04-30T18:16:13.388Z,50.30
2023-04-30T18:18:41.330Z,50.30
2023-04-30T18:21:11.125Z,50.60
2023-04-30T18:23:38.583Z,50.50
2023-04-30T18:26:06.117Z,50.90
2023-04-30T18:28:34.104Z,50.80
2023-04-30T18:31:02.160Z,51.00
2023-04-30T18:33:29.557Z,51.00
2023-04-30T18:35:58.633Z,51.30
2023-04-30T18:38:27.096Z,51.00
2023-04-30T18:40:56.220Z,51.30
2023-04-30T18:43:23.626Z,51.70
2023-04-30T18:45:51.524Z,51.80
2023-04-30T18:48:19.474Z,51.60
2023-04-30T18:50:47.118Z,51.80
2023-04-30T18:53:14.218Z,51.70
2023-04-30T18:55:41.914Z,51.70
2023-04-30T18:58:10.097Z,51.50
2023-04-30T19:00:37.482Z,51.50
2023-04-30T19:03:04.810Z,51.80
2023-04-30T19:05:35.262Z,51.70
2023-04-30T19:08:03.412Z,51.80
2023-04-30T19:10:30.481Z,52.20
2023-04-30T19:12:57.620Z,52.00
2023-04-30T19:15:25.843Z,52.30
2023-04-30T19:17:52.975Z,52.10
2023-04-30T19:20:20.161Z,52.20
2023-04-30T19:22:50.230Z,52.30
2023-04-30T19:25:18.175Z,52.00
2023-04-30T19:27:46.221Z,52.20
2023-04-30T19:30:14.861Z,52.10
2023-04-30T19:32:42.599Z,51.90
2023-04-30T19:35:10.651Z,51.90
2023-04-30T19:37:38.329Z,51.50
2023-04-30T19:40:12.456Z,51.60
2023-04-30T19:42:40.390Z,51.70
2023-04-30T19:45:09.683Z,51.80
2023-04-30T19:47:38.235Z,51.20
2023-04-30T19:50:06.129Z,51.40
2023-04-30T19:52:34.501Z,51.40
2023-04-30T19:55:02.648Z,51.00
2023-04-30T19:57:34.915Z,50.80
2023-04-30T20:00:05.225Z,50.70
2023-04-30T20:02:34.223Z,50.40
2023-04-30T20:05:01.599Z,50.20
2023-04-30T20:07:28.698Z,49.90
2023-04-30T20:09:56.265Z,50.00
2023-04-30T20:12:24.243Z,50.20
2023-04-30T20:14:51.706Z,50.30
2023-04-30T20:17:19.838Z,50.00
2023-04-30T20:19:46.763Z,50.40
2023-04-30T20:22:14.461Z,50.10
2023-04-30T20:24:44.989Z,50.20
2023-04-30T20:27:15.584Z,50.40
2023-04-30T20:29:42.937Z,50.40
2023-04-30T20:32:10.125Z,50.50
2023-04-30T20:34:38.851Z,50.00
2023-04-30T20:37:05.920Z,49.80
2023-04-30T20:39:33.271Z,49.70
2023-04-30T20:42:01.803Z,49.20
2023-04-30T20:44:28.931Z,49.10
2023-04-30T20:46:56.257Z,49.40
2023-04-30T20:49:23.606Z,49.50
2023-04-30T20:51:50.685Z,49.20
2023-04-30T20:54:17.909Z,49.30
2023-04-30T20:56:47.350Z,48.80
2023-04-30T20:59:14.867Z,48.90
2023-04-30T21:01:42.080Z,49.20
2023-04-30T21:04:09.744Z,48.50
2023-04-30T21:06:37.283Z,48.90
2023-04-30T21:09:04.865Z,49.10
2023-04-30T21:11:33.361Z,49.00
2023-04-30T21:14:00.325Z,48.80
2023-04-30T21:16:28.006Z,49.30
2023-04-30T21:18:55.026Z,48.90
2023-04-30T21:21:23.047Z,48.90
2023-04-30T21:23:50.577Z,49.20
2023-04-30T21:26:18.222Z,49.10
2023-04-30T21:28:46.022Z,49.40
2023-04-30T21:31:13.943Z,49.10
2023-04-30T21:33:41.327Z,49.30
2023-04-30T21:36:08.865Z,49.50
2023-04-30T21:38:37.311Z,50.00
2023-04-30T21:41:05.137Z,49.90
2023-04-30T21:43:32.153Z,49.60
2023-04-30T21:46:03.580Z,49.80
2023-04-30T21:48:31.722Z,49.60
2023-04-30T21:50:58.598Z,49.30
2023-04-30T21:53:26.581Z,49.60
2023-04-30T21:55:53.858Z,49.60
2023-04-30T21:58:21.279Z,49.60
2023-04-30T22:00:49.618Z,49.50
2023-04-30T22:03:17.046Z,49.70
2023-04-30T22:05:44.367Z,49.80
2023-04-30T22:08:11.261Z,49.80
2023-04-30T22:10:38.494Z,50.10
2023-04-30T22:13:06.006Z,50.10
2023-04-30T22:15:47.017Z,49.80
2023-04-30T22:18:15.147Z,49.80
2023-04-30T22:20:42.281Z,50.00
2023-04-30T22:23:09.475Z,50.10
2023-04-30T22:25:36.606Z,50.10
2023-04-30T22:28:03.940Z,50.20
2023-04-30T22:30:31.561Z,50.10
2023-04-30T22:32:59.139Z,49.80
2023-04-30T22:35:27.959Z,50.10
2023-04-30T22:37:55.328Z,50.10
2023-04-30T22:40:22.695Z,49.70
2023-04-30T22:42:50.113Z,50.20
2023-04-30T22:45:17.521Z,49.70
2023-04-30T22:47:45.960Z,49.90
2023-04-30T22:50:13.631Z,49.90
2023-04-30T22:52:41.113Z,50.20
2023-04-30T22:55:09.135Z,50.20
2023-04-30T22:57:36.534Z,50.10
2023-04-30T23:00:05.991Z,50.40
2023-04-30T23:02:33.078Z,50.30
2023-04-30T23:05:01.447Z,50.10
2023-04-30T23:07:28.471Z,50.30
2023-04-30T23:09:57.686Z,50.20
2023-04-30T23:12:25.027Z,50.60
2023-04-30T23:14:52.353Z,50.60
2023-04-30T23:17:19.568Z,50.70
2023-04-30T23:19:46.790Z,50.90
2023-04-30T23:22:14.085Z,50.90
2023-04-30T23:24:41.437Z,50.70
2023-04-30T23:27:08.941Z,50.80
2023-04-30T23:29:36.579Z,51.10
2023-04-30T23:32:04.619Z,51.30
2023-04-30T23:34:32.239Z,51.40
2023-04-30T23:36:59.295Z,51.40
2023-04-30T23:39:27.599Z,51.60
2023-04-30T23:41:54.902Z,51.40
2023-04-30T23:44:22.339Z,51.50
2023-04-30T23:46:51.643Z,51.20
2023-04-30T23:49:18.929Z,51.50
2023-04-30T23:51:45.925Z,51.30
2023-04-30T23:54:13.308Z,51.10
2023-04-30T23:56:40.580Z,51.70
2023-04-30T23:59:07.993Z,51.70
